createdAt,value
2018-06-21T00:00:24.165Z,0
2018-06-21T00:01:33.638Z,0
2018-06-21T00:02:43.649Z,0
2018-06-21T00:03:53.649Z,0
2018-06-21T00:05:03.386Z,0
2018-06-21T00:06:13.129Z,0
2018-06-21T00:07:22.605Z,0
2018-06-21T00:08:32.615Z,0
2018-06-21T00:09:42.359Z,0
2018-06-21T00:10:52.148Z,0
2018-06-21T00:12:01.364Z,0
2018-06-21T00:13:11.377Z,0
2018-06-21T00:14:20.600Z,0
2018-06-21T00:15:30.338Z,0
2018-06-21T00:16:40.350Z,0
2018-06-21T00:17:50.097Z,0
2018-06-21T00:18:59.841Z,0
2018-06-21T00:20:09.579Z,0
2018-06-21T00:21:19.589Z,0
2018-06-21T00:22:29.057Z,0
2018-06-21T00:23:38.532Z,0
2018-06-21T00:24:48.535Z,0
2018-06-21T00:25:58.539Z,0
2018-06-21T00:27:08.275Z,0
2018-06-21T00:28:18.031Z,0
2018-06-21T00:29:28.075Z,0
2018-06-21T00:30:38.086Z,0
2018-06-21T00:31:47.301Z,0
2018-06-21T00:32:57.029Z,0
2018-06-21T00:34:06.765Z,0
2018-06-21T00:35:16.501Z,0
2018-06-21T00:36:25.983Z,0
2018-06-21T00:37:35.984Z,0
2018-06-21T00:38:45.986Z,0
2018-06-21T00:39:55.457Z,0
2018-06-21T00:41:05.465Z,0
2018-06-21T00:42:15.469Z,0
2018-06-21T00:43:25.263Z,0
2018-06-21T00:44:34.741Z,0
2018-06-21T00:45:44.216Z,0
2018-06-21T00:46:54.225Z,0
2018-06-21T00:48:03.962Z,0
2018-06-21T00:49:13.442Z,0
2018-06-21T00:50:23.192Z,0
2018-06-21T00:51:32.926Z,0
2018-06-21T00:52:42.405Z,0
2018-06-21T00:53:51.872Z,0
2018-06-21T00:55:01.882Z,0
2018-06-21T00:56:11.622Z,0
2018-06-21T00:57:21.097Z,0
2018-06-21T00:58:30.573Z,0
2018-06-21T00:59:40.069Z,0
2018-06-21T01:00:50.070Z,0
2018-06-21T01:02:00.073Z,0
2018-06-21T01:03:09.809Z,0
2018-06-21T01:04:19.811Z,0
2018-06-21T01:05:29.550Z,0
2018-06-21T01:06:39.551Z,0
2018-06-21T01:07:49.294Z,0
2018-06-21T01:08:59.024Z,0
2018-06-21T01:10:09.028Z,0
2018-06-21T01:11:19.032Z,0
2018-06-21T01:12:28.765Z,0
2018-06-21T01:13:38.499Z,0
2018-06-21T01:14:47.967Z,0
2018-06-21T01:15:57.710Z,0
2018-06-21T01:17:07.229Z,0
2018-06-21T01:18:16.963Z,0
2018-06-21T01:19:26.703Z,0
2018-06-21T01:20:36.700Z,0
2018-06-21T01:21:46.701Z,0
2018-06-21T01:22:56.702Z,0
2018-06-21T01:24:06.432Z,0
2018-06-21T01:25:16.490Z,0
2018-06-21T01:26:26.506Z,0
2018-06-21T01:27:36.517Z,0
2018-06-21T01:28:46.516Z,5
2018-06-21T01:29:56.248Z,5
2018-06-21T01:31:06.253Z,5
2018-06-21T01:32:15.985Z,5
2018-06-21T01:33:25.981Z,5
2018-06-21T01:34:35.451Z,5
2018-06-21T01:35:45.456Z,5
2018-06-21T01:36:55.198Z,5
2018-06-21T01:38:04.667Z,5
2018-06-21T01:39:14.398Z,5
2018-06-21T01:40:24.130Z,5
2018-06-21T01:41:33.863Z,5
2018-06-21T01:42:43.884Z,5
2018-06-21T01:43:53.891Z,5
2018-06-21T01:45:03.906Z,10
2018-06-21T01:46:13.114Z,10
2018-06-21T01:47:23.117Z,10
2018-06-21T01:48:32.852Z,10
2018-06-21T01:49:42.584Z,10
2018-06-21T01:50:52.318Z,10
2018-06-21T01:52:01.787Z,10
2018-06-21T01:53:10.987Z,10
2018-06-21T01:54:20.722Z,10
2018-06-21T01:55:30.732Z,10
2018-06-21T01:56:40.201Z,10
2018-06-21T01:57:50.202Z,10
2018-06-21T01:59:00.197Z,10
2018-06-21T02:00:09.685Z,10
2018-06-21T02:01:19.418Z,15
2018-06-21T02:02:29.154Z,15
2018-06-21T02:03:39.159Z,15
2018-06-21T02:04:49.161Z,15
2018-06-21T02:05:58.897Z,15
2018-06-21T02:07:08.905Z,15
2018-06-21T02:08:19.035Z,15
2018-06-21T02:09:29.037Z,15
2018-06-21T02:10:38.773Z,15
2018-06-21T02:11:48.513Z,20
2018-06-21T02:12:58.524Z,20
2018-06-21T02:14:08.261Z,20
2018-06-21T02:15:17.996Z,20
2018-06-21T02:16:28.004Z,20
2018-06-21T02:17:37.472Z,25
2018-06-21T02:18:47.471Z,25
2018-06-21T02:19:57.472Z,25
2018-06-21T02:21:06.944Z,25
2018-06-21T02:22:16.410Z,25
2018-06-21T02:23:26.147Z,25
2018-06-21T02:24:36.147Z,25
2018-06-21T02:25:46.148Z,30
2018-06-21T02:26:56.146Z,30
2018-06-21T02:28:05.886Z,30
2018-06-21T02:29:15.359Z,30
2018-06-21T02:30:25.389Z,30
2018-06-21T02:31:34.598Z,30
2018-06-21T02:32:44.333Z,30
2018-06-21T02:33:54.335Z,30
2018-06-21T02:35:04.079Z,35
2018-06-21T02:36:13.823Z,35
2018-06-21T02:37:23.843Z,35
2018-06-21T02:38:33.319Z,35
2018-06-21T02:39:43.335Z,35
2018-06-21T02:40:53.356Z,35
2018-06-21T02:42:03.408Z,35
2018-06-21T02:43:13.420Z,35
2018-06-21T02:44:23.159Z,35
2018-06-21T02:45:33.179Z,40
2018-06-21T02:46:42.957Z,40
2018-06-21T02:47:52.980Z,40
2018-06-21T02:49:04.730Z,40
2018-06-21T02:50:14.737Z,40
2018-06-21T02:51:24.478Z,40
2018-06-21T02:52:34.214Z,45
2018-06-21T02:53:43.950Z,45
2018-06-21T02:54:53.956Z,45
2018-06-21T02:56:03.692Z,45
2018-06-21T02:57:13.429Z,45
2018-06-21T02:58:23.438Z,45
2018-06-21T02:59:33.446Z,45
2018-06-21T03:03:42.404Z,50
2018-06-21T03:04:51.608Z,50
2018-06-21T03:06:01.617Z,55
2018-06-21T03:07:11.131Z,55
2018-06-21T03:08:21.152Z,60
2018-06-21T03:09:32.904Z,60
2018-06-21T03:10:42.917Z,65
2018-06-21T03:11:52.932Z,65
2018-06-21T03:13:02.675Z,65
2018-06-21T03:14:12.432Z,65
2018-06-21T03:15:22.446Z,65
2018-06-21T03:16:32.186Z,65
2018-06-21T03:17:41.919Z,65
2018-06-21T03:18:51.930Z,65
2018-06-21T03:20:01.943Z,60
2018-06-21T03:21:11.423Z,60
2018-06-21T03:22:21.449Z,60
2018-06-21T03:23:31.455Z,60
2018-06-21T03:24:41.459Z,60
2018-06-21T03:25:51.465Z,60
2018-06-21T03:27:01.468Z,60
2018-06-21T03:28:11.204Z,60
2018-06-21T03:29:20.687Z,65
2018-06-21T03:30:30.714Z,65
2018-06-21T03:31:40.468Z,70
2018-06-21T03:32:50.204Z,70
2018-06-21T03:34:00.210Z,70
2018-06-21T03:35:10.217Z,75
2018-06-21T03:36:20.234Z,75
2018-06-21T03:37:29.970Z,75
2018-06-21T03:38:39.708Z,75
2018-06-21T03:39:49.453Z,70
2018-06-21T03:40:59.467Z,70
2018-06-21T03:42:09.213Z,70
2018-06-21T03:43:19.219Z,70
2018-06-21T03:44:28.692Z,70
2018-06-21T03:45:38.432Z,70
2018-06-21T03:46:48.175Z,70
2018-06-21T03:47:57.914Z,70
2018-06-21T03:49:07.916Z,70
2018-06-21T03:50:17.922Z,65
2018-06-21T03:51:27.928Z,65
2018-06-21T03:52:37.932Z,65
2018-06-21T03:53:47.945Z,65
2018-06-21T03:54:57.957Z,70
2018-06-21T03:56:07.965Z,70
2018-06-21T03:57:17.705Z,75
2018-06-21T03:58:27.441Z,75
2018-06-21T03:59:36.909Z,75
2018-06-21T04:00:46.912Z,80
2018-06-21T04:01:56.911Z,80
2018-06-21T04:03:07.053Z,80
2018-06-21T04:04:16.572Z,85
2018-06-21T04:05:25.923Z,85
2018-06-21T04:06:35.411Z,85
2018-06-21T04:07:44.896Z,90
2018-06-21T04:08:54.636Z,90
2018-06-21T04:10:04.111Z,95
2018-06-21T04:11:13.854Z,95
2018-06-21T04:12:23.860Z,100
2018-06-21T04:13:33.600Z,100
2018-06-21T04:14:43.607Z,100
2018-06-21T04:15:53.618Z,105
2018-06-21T04:17:03.352Z,105
2018-06-21T04:18:13.096Z,105
2018-06-21T04:19:22.837Z,105
2018-06-21T04:20:32.852Z,105
2018-06-21T04:21:42.860Z,105
2018-06-21T04:22:52.340Z,105
2018-06-21T04:24:01.813Z,105
2018-06-21T04:25:11.079Z,105
2018-06-21T04:26:20.820Z,105
2018-06-21T04:27:30.859Z,105
2018-06-21T04:28:40.869Z,105
2018-06-21T04:29:50.871Z,105
2018-06-21T04:31:00.875Z,105
2018-06-21T04:32:10.880Z,105
2018-06-21T04:33:20.887Z,110
2018-06-21T04:34:30.885Z,110
2018-06-21T04:35:40.893Z,115
2018-06-21T04:36:50.627Z,110
2018-06-21T04:38:01.106Z,110
2018-06-21T04:39:10.580Z,110
2018-06-21T04:40:20.326Z,110
2018-06-21T04:41:30.073Z,115
2018-06-21T04:42:40.082Z,115
2018-06-21T04:43:49.826Z,120
2018-06-21T04:44:59.574Z,115
2018-06-21T04:46:09.318Z,110
2018-06-21T04:47:19.373Z,105
2018-06-21T04:48:29.379Z,105
2018-06-21T04:49:39.114Z,105
2018-06-21T04:50:48.863Z,110
2018-06-21T04:51:58.629Z,105
2018-06-21T04:53:08.105Z,105
2018-06-21T04:54:17.577Z,105
2018-06-21T04:55:27.586Z,110
2018-06-21T04:56:37.598Z,110
2018-06-21T04:57:47.341Z,115
2018-06-21T04:58:57.077Z,125
2018-06-21T05:00:06.975Z,130
2018-06-21T05:01:16.393Z,130
2018-06-21T05:02:26.142Z,135
2018-06-21T05:03:35.911Z,135
2018-06-21T05:04:45.941Z,140
2018-06-21T05:05:55.143Z,140
2018-06-21T05:07:04.886Z,145
2018-06-21T05:08:14.900Z,145
2018-06-21T05:09:24.642Z,145
2018-06-21T05:10:34.647Z,145
2018-06-21T05:11:44.657Z,155
2018-06-21T05:12:54.138Z,160
2018-06-21T05:14:03.871Z,165
2018-06-21T05:15:13.616Z,160
2018-06-21T05:16:23.618Z,155
2018-06-21T05:17:33.671Z,150
2018-06-21T05:18:43.671Z,140
2018-06-21T05:19:53.688Z,135
2018-06-21T05:21:03.774Z,125
2018-06-21T05:22:13.779Z,115
2018-06-21T05:23:23.785Z,110
2018-06-21T05:24:33.264Z,105
2018-06-21T05:25:43.270Z,100
2018-06-21T05:26:53.282Z,100
2018-06-21T05:28:03.027Z,100
2018-06-21T05:29:12.767Z,105
2018-06-21T05:30:22.822Z,105
2018-06-21T05:31:32.570Z,105
2018-06-21T05:32:42.073Z,105
2018-06-21T05:33:51.812Z,105
2018-06-21T05:35:01.817Z,105
2018-06-21T05:36:11.563Z,105
2018-06-21T05:37:21.344Z,105
2018-06-21T05:38:31.043Z,105
2018-06-21T05:39:40.521Z,105
2018-06-21T05:40:50.293Z,105
2018-06-21T05:42:00.298Z,105
2018-06-21T05:43:10.036Z,105
2018-06-21T05:44:20.137Z,105
2018-06-21T05:45:30.155Z,110
2018-06-21T05:46:40.165Z,110
2018-06-21T05:47:49.906Z,110
2018-06-21T05:48:59.644Z,115
2018-06-21T05:50:08.942Z,120
2018-06-21T05:51:18.699Z,120
2018-06-21T05:52:28.707Z,125
2018-06-21T05:53:37.915Z,130
2018-06-21T05:54:47.930Z,130
2018-06-21T05:55:57.942Z,130
2018-06-21T05:57:07.688Z,120
2018-06-21T05:58:17.694Z,120
2018-06-21T05:59:27.433Z,120
2018-06-21T06:00:37.446Z,130
2018-06-21T06:01:47.457Z,135
2018-06-21T06:02:57.199Z,130
2018-06-21T06:04:06.690Z,130
2018-06-21T06:05:16.703Z,135
2018-06-21T06:06:26.916Z,135
2018-06-21T06:07:36.423Z,135
2018-06-21T06:08:46.205Z,140
2018-06-21T06:09:55.955Z,140
2018-06-21T06:11:05.964Z,145
2018-06-21T06:12:15.983Z,145
2018-06-21T06:13:25.988Z,145
2018-06-21T06:14:35.744Z,150
2018-06-21T06:15:45.481Z,150
2018-06-21T06:16:54.960Z,145
2018-06-21T06:18:04.965Z,140
2018-06-21T06:19:14.701Z,140
2018-06-21T06:20:24.717Z,140
2018-06-21T06:21:34.841Z,145
2018-06-21T06:22:44.305Z,150
2018-06-21T06:23:54.317Z,150
2018-06-21T06:25:03.794Z,150
2018-06-21T06:26:13.545Z,150
2018-06-21T06:27:23.544Z,150
2018-06-21T06:28:32.793Z,145
2018-06-21T06:29:42.819Z,140
2018-06-21T06:30:52.560Z,140
2018-06-21T06:32:02.031Z,135
2018-06-21T06:33:11.770Z,135
2018-06-21T06:34:21.786Z,130
2018-06-21T06:35:31.793Z,125
2018-06-21T06:36:41.532Z,125
2018-06-21T06:37:51.277Z,125
2018-06-21T06:39:01.279Z,125
2018-06-21T06:40:11.288Z,125
2018-06-21T06:41:21.030Z,125
2018-06-21T06:42:31.050Z,130
2018-06-21T06:43:40.567Z,130
2018-06-21T06:44:50.308Z,135
2018-06-21T06:46:00.315Z,135
2018-06-21T06:47:09.788Z,140
2018-06-21T06:48:19.813Z,140
2018-06-21T06:49:29.827Z,145
2018-06-21T06:50:39.578Z,145
2018-06-21T06:51:49.042Z,145
2018-06-21T06:52:58.783Z,150
2018-06-21T06:54:08.791Z,145
2018-06-21T06:55:18.532Z,145
2018-06-21T06:56:28.538Z,145
2018-06-21T06:57:38.018Z,145
2018-06-21T06:58:47.758Z,145
2018-06-21T06:59:57.815Z,150
2018-06-21T07:01:07.556Z,150
2018-06-21T07:02:17.568Z,160
2018-06-21T07:03:27.307Z,160
2018-06-21T07:04:37.063Z,160
2018-06-21T07:05:47.070Z,160
2018-06-21T07:06:57.076Z,160
2018-06-21T07:08:07.296Z,160
2018-06-21T07:09:16.975Z,170
2018-06-21T07:10:27.038Z,175
2018-06-21T07:11:36.785Z,185
2018-06-21T07:12:46.796Z,190
2018-06-21T07:13:56.846Z,190
2018-06-21T07:15:06.589Z,190
2018-06-21T07:16:16.060Z,190
2018-06-21T07:17:25.798Z,200
2018-06-21T07:18:35.008Z,205
2018-06-21T07:19:44.479Z,200
2018-06-21T07:20:53.956Z,195
2018-06-21T07:22:03.969Z,190
2018-06-21T07:23:13.441Z,190
2018-06-21T07:24:23.442Z,190
2018-06-21T07:25:33.449Z,190
2018-06-21T07:26:43.457Z,185
2018-06-21T07:27:53.196Z,180
2018-06-21T07:29:02.671Z,170
2018-06-21T07:30:12.413Z,170
2018-06-21T07:31:22.423Z,170
2018-06-21T07:32:32.173Z,175
2018-06-21T07:33:42.060Z,180
2018-06-21T07:34:52.068Z,195
2018-06-21T07:36:02.081Z,200
2018-06-21T07:37:11.575Z,205
2018-06-21T07:38:21.322Z,210
2018-06-21T07:39:31.326Z,225
2018-06-21T07:40:41.334Z,230
2018-06-21T07:41:51.368Z,225
2018-06-21T07:43:01.171Z,210
2018-06-21T07:44:11.204Z,210
2018-06-21T07:45:20.691Z,210
2018-06-21T07:46:29.910Z,205
2018-06-21T07:47:39.119Z,200
2018-06-21T07:48:48.601Z,210
2018-06-21T07:49:58.609Z,220
2018-06-21T07:51:08.365Z,245
2018-06-21T07:52:18.406Z,240
2018-06-21T07:53:27.880Z,235
2018-06-21T07:54:37.636Z,230
2018-06-21T07:55:47.661Z,235
2018-06-21T07:56:57.716Z,235
2018-06-21T07:58:07.455Z,235
2018-06-21T07:59:17.415Z,235
2018-06-21T08:00:27.447Z,225
2018-06-21T08:01:37.213Z,220
2018-06-21T08:02:47.239Z,210
2018-06-21T08:03:57.018Z,210
2018-06-21T08:05:06.976Z,210
2018-06-21T08:06:17.008Z,210
2018-06-21T08:07:27.046Z,205
2018-06-21T08:08:36.785Z,195
2018-06-21T08:09:46.538Z,180
2018-06-21T08:10:56.279Z,175
2018-06-21T08:12:06.073Z,170
2018-06-21T08:13:16.089Z,165
2018-06-21T08:14:26.104Z,165
2018-06-21T08:15:35.889Z,160
2018-06-21T08:16:45.357Z,170
2018-06-21T08:17:55.362Z,180
2018-06-21T08:19:05.372Z,195
2018-06-21T08:20:15.499Z,210
2018-06-21T08:21:25.526Z,220
2018-06-21T08:22:35.538Z,230
2018-06-21T08:23:45.272Z,255
2018-06-21T08:24:55.017Z,300
2018-06-21T08:26:04.491Z,340
2018-06-21T08:27:13.977Z,350
2018-06-21T08:28:23.991Z,345
2018-06-21T08:29:33.468Z,345
2018-06-21T08:30:42.680Z,380
2018-06-21T08:31:52.424Z,385
2018-06-21T08:33:02.163Z,355
2018-06-21T08:34:11.632Z,325
2018-06-21T08:35:21.102Z,300
2018-06-21T08:36:30.840Z,290
2018-06-21T08:37:40.583Z,275
2018-06-21T08:38:50.900Z,260
2018-06-21T08:40:00.914Z,260
2018-06-21T08:41:10.122Z,285
2018-06-21T08:42:20.142Z,290
2018-06-21T08:43:30.147Z,290
2018-06-21T08:44:39.886Z,290
2018-06-21T08:45:49.884Z,290
2018-06-21T08:46:59.958Z,325
2018-06-21T08:48:09.700Z,325
2018-06-21T08:49:19.705Z,285
2018-06-21T08:50:29.446Z,265
2018-06-21T08:51:39.461Z,260
2018-06-21T08:52:49.467Z,260
2018-06-21T08:53:59.481Z,275
2018-06-21T08:55:09.219Z,300
2018-06-21T08:56:18.425Z,340
2018-06-21T08:57:27.900Z,355
2018-06-21T08:58:37.334Z,280
2018-06-21T08:59:47.341Z,245
2018-06-21T09:00:57.352Z,240
2018-06-21T09:02:07.092Z,230
2018-06-21T09:03:16.569Z,250
2018-06-21T09:04:26.583Z,245
2018-06-21T09:05:36.595Z,270
2018-06-21T09:06:46.334Z,300
2018-06-21T09:07:56.344Z,320
2018-06-21T09:09:06.358Z,330
2018-06-21T09:10:16.103Z,325
2018-06-21T09:11:25.580Z,320
2018-06-21T09:12:35.109Z,330
2018-06-21T09:13:45.254Z,325
2018-06-21T09:14:55.272Z,330
2018-06-21T09:16:05.057Z,350
2018-06-21T09:17:14.264Z,375
2018-06-21T09:18:24.269Z,375
2018-06-21T09:19:33.748Z,370
2018-06-21T09:20:42.954Z,380
2018-06-21T09:21:52.964Z,395
2018-06-21T09:23:02.973Z,410
2018-06-21T09:24:12.709Z,405
2018-06-21T09:25:22.449Z,420
2018-06-21T09:26:32.460Z,430
2018-06-21T09:27:42.472Z,425
2018-06-21T09:28:52.208Z,430
2018-06-21T09:30:02.222Z,410
2018-06-21T09:31:11.965Z,385
2018-06-21T09:32:21.439Z,360
2018-06-21T09:33:31.347Z,345
2018-06-21T09:34:41.090Z,365
2018-06-21T09:35:51.095Z,385
2018-06-21T09:37:01.103Z,410
2018-06-21T09:38:10.579Z,400
2018-06-21T09:39:20.594Z,370
2018-06-21T09:40:30.334Z,335
2018-06-21T09:41:39.805Z,340
2018-06-21T09:42:49.863Z,370
2018-06-21T09:44:13.673Z,370
2018-06-21T09:45:23.147Z,350
2018-06-21T09:46:43.910Z,375
2018-06-21T09:47:53.378Z,400
2018-06-21T09:49:03.393Z,425
2018-06-21T09:50:12.907Z,430
2018-06-21T09:51:22.389Z,425
2018-06-21T09:52:32.284Z,420
2018-06-21T09:53:42.345Z,425
2018-06-21T09:54:52.086Z,435
2018-06-21T09:56:02.104Z,455
2018-06-21T09:57:11.591Z,460
2018-06-21T09:58:21.327Z,470
2018-06-21T09:59:31.334Z,470
2018-06-21T10:00:41.340Z,455
2018-06-21T10:01:51.403Z,440
2018-06-21T10:03:01.416Z,405
2018-06-21T10:04:11.158Z,395
2018-06-21T10:05:20.635Z,435
2018-06-21T10:06:30.375Z,435
2018-06-21T10:07:40.395Z,415
2018-06-21T10:08:50.414Z,405
2018-06-21T10:10:00.158Z,390
2018-06-21T10:11:09.905Z,365
2018-06-21T10:12:19.374Z,350
2018-06-21T10:13:31.380Z,350
2018-06-21T10:14:40.852Z,335
2018-06-21T10:15:50.888Z,325
2018-06-21T10:17:00.929Z,345
2018-06-21T10:18:10.663Z,350
2018-06-21T10:19:20.671Z,350
2018-06-21T10:20:31.140Z,355
2018-06-21T10:21:41.212Z,340
2018-06-21T10:22:50.956Z,315
2018-06-21T10:24:00.965Z,315
2018-06-21T10:25:10.711Z,335
2018-06-21T10:26:20.454Z,340
2018-06-21T10:27:30.203Z,330
2018-06-21T10:28:39.413Z,340
2018-06-21T10:29:49.168Z,345
2018-06-21T10:30:58.954Z,360
2018-06-21T10:32:08.971Z,370
2018-06-21T10:33:18.446Z,370
2018-06-21T10:34:28.191Z,365
2018-06-21T10:35:38.209Z,375
2018-06-21T10:36:48.222Z,405
2018-06-21T10:37:58.237Z,395
2018-06-21T10:39:07.715Z,425
2018-06-21T10:40:17.724Z,425
2018-06-21T10:41:27.727Z,430
2018-06-21T10:42:37.405Z,460
2018-06-21T10:43:47.421Z,475
2018-06-21T10:44:57.436Z,460
2018-06-21T10:46:06.909Z,475
2018-06-21T10:47:16.656Z,510
2018-06-21T10:48:26.124Z,520
2018-06-21T10:49:35.870Z,520
2018-06-21T10:50:45.617Z,575
2018-06-21T10:51:55.634Z,605
2018-06-21T10:53:05.106Z,570
2018-06-21T10:54:14.577Z,535
2018-06-21T10:55:24.319Z,530
2018-06-21T10:56:34.321Z,500
2018-06-21T10:57:44.330Z,525
2018-06-21T10:58:54.067Z,535
2018-06-21T11:00:03.542Z,530
2018-06-21T11:01:13.023Z,565
2018-06-21T11:02:22.492Z,615
2018-06-21T11:03:32.085Z,635
2018-06-21T11:04:42.100Z,635
2018-06-21T11:05:51.917Z,665
2018-06-21T11:07:01.133Z,670
2018-06-21T11:08:10.868Z,700
2018-06-21T11:09:20.341Z,740
2018-06-21T11:10:30.085Z,745
2018-06-21T11:11:39.717Z,750
2018-06-21T11:12:49.772Z,750
2018-06-21T11:13:59.785Z,750
2018-06-21T11:15:09.795Z,770
2018-06-21T11:16:19.549Z,790
2018-06-21T11:17:29.562Z,810
2018-06-21T11:18:39.307Z,820
2018-06-21T11:19:49.059Z,795
2018-06-21T11:20:58.808Z,780
2018-06-21T11:22:08.834Z,800
2018-06-21T11:23:18.839Z,840
2018-06-21T11:24:28.328Z,870
2018-06-21T11:25:38.084Z,880
2018-06-21T11:26:48.102Z,890
2018-06-21T11:27:58.388Z,905
2018-06-21T11:29:08.137Z,930
2018-06-21T11:30:17.883Z,940
2018-06-21T11:31:27.897Z,940
2018-06-21T11:32:37.910Z,905
2018-06-21T11:33:47.652Z,885
2018-06-21T11:34:57.664Z,920
2018-06-21T11:36:07.686Z,910
2018-06-21T11:37:17.173Z,970
2018-06-21T11:38:26.918Z,1040
2018-06-21T11:39:36.950Z,945
2018-06-21T11:40:46.959Z,915
2018-06-21T11:41:56.968Z,955
2018-06-21T11:43:06.445Z,980
2018-06-21T11:44:15.920Z,1080
2018-06-21T11:45:25.937Z,1025
2018-06-21T11:46:35.423Z,995
2018-06-21T11:47:45.437Z,1005
2018-06-21T11:48:55.450Z,1165
2018-06-21T11:50:04.925Z,1010
2018-06-21T11:51:14.675Z,915
2018-06-21T11:52:25.165Z,890
2018-06-21T11:53:34.925Z,1025
2018-06-21T11:54:44.932Z,910
2018-06-21T11:55:54.425Z,725
2018-06-21T11:57:03.909Z,655
2018-06-21T11:58:13.124Z,630
2018-06-21T11:59:22.337Z,675
2018-06-21T12:00:32.352Z,755
2018-06-21T12:01:42.122Z,860
2018-06-21T12:02:52.140Z,980
2018-06-21T12:04:02.157Z,1035
2018-06-21T12:05:11.386Z,1095
2018-06-21T12:06:21.418Z,1055
2018-06-21T12:07:31.426Z,1115
2018-06-21T12:08:41.555Z,1365
2018-06-21T12:09:51.584Z,1280
2018-06-21T12:11:01.672Z,1705
2018-06-21T12:12:10.888Z,1995
2018-06-21T12:13:20.910Z,2400
2018-06-21T12:14:30.655Z,1480
2018-06-21T12:15:40.450Z,1515
2018-06-21T12:16:50.207Z,2010
2018-06-21T12:18:00.225Z,2325
2018-06-21T12:19:10.241Z,1890
2018-06-21T12:20:20.258Z,1665
2018-06-21T12:21:30.273Z,1675
2018-06-21T12:22:40.019Z,2035
2018-06-21T12:23:50.046Z,1770
2018-06-21T12:25:00.058Z,1510
2018-06-21T12:26:09.692Z,1815
2018-06-21T12:27:19.721Z,1805
2018-06-21T12:28:29.483Z,1875
2018-06-21T12:29:39.511Z,2700
2018-06-21T12:30:49.534Z,3140
2018-06-21T12:31:59.405Z,2305
2018-06-21T12:33:09.194Z,3735
2018-06-21T12:34:18.943Z,3595
2018-06-21T12:35:28.956Z,3575
2018-06-21T12:36:38.717Z,3510
2018-06-21T12:37:48.202Z,3445
2018-06-21T12:38:57.952Z,2510
2018-06-21T12:40:07.714Z,1855
2018-06-21T12:41:17.210Z,1960
2018-06-21T12:42:27.233Z,1540
2018-06-21T12:43:37.377Z,1650
2018-06-21T12:44:47.423Z,1715
2018-06-21T12:45:57.200Z,2070
2018-06-21T12:47:06.964Z,2560
2018-06-21T12:48:16.721Z,1680
2018-06-21T12:49:26.745Z,1640
2018-06-21T12:50:36.580Z,1930
2018-06-21T12:51:46.338Z,1655
2018-06-21T12:52:55.824Z,1890
2018-06-21T12:54:05.038Z,2495
2018-06-21T12:55:14.529Z,2265
2018-06-21T12:56:24.552Z,1870
2018-06-21T12:57:34.576Z,2495
2018-06-21T12:58:44.605Z,1770
2018-06-21T12:59:54.102Z,1790
2018-06-21T13:01:04.126Z,2420
2018-06-21T13:02:14.150Z,1895
2018-06-21T13:03:24.180Z,1575
2018-06-21T13:04:34.212Z,1640
2018-06-21T13:05:44.244Z,2060
2018-06-21T13:06:54.265Z,1635
2018-06-21T13:08:04.285Z,1920
2018-06-21T13:09:14.046Z,1585
2018-06-21T13:10:23.809Z,1555
2018-06-21T13:11:33.298Z,1430
2018-06-21T13:12:43.321Z,1595
2018-06-21T13:13:53.076Z,2760
2018-06-21T13:15:03.104Z,3175
2018-06-21T13:16:12.593Z,3470
2018-06-21T13:17:22.618Z,2075
2018-06-21T13:18:32.373Z,3570
2018-06-21T13:19:41.894Z,3065
2018-06-21T13:20:51.790Z,3930
2018-06-21T13:22:01.824Z,3865
2018-06-21T13:23:11.048Z,3965
2018-06-21T13:24:21.096Z,3645
2018-06-21T13:25:31.112Z,3715
2018-06-21T13:26:41.140Z,2555
2018-06-21T13:27:51.297Z,3940
2018-06-21T13:29:01.859Z,3500
2018-06-21T13:30:11.361Z,3670
2018-06-21T13:31:21.122Z,3745
2018-06-21T13:32:31.171Z,3390
2018-06-21T13:33:40.405Z,4240
2018-06-21T13:34:50.175Z,3850
2018-06-21T13:35:59.936Z,3500
2018-06-21T13:37:10.166Z,4595
2018-06-21T13:38:20.214Z,4240
2018-06-21T13:39:29.702Z,3925
2018-06-21T13:40:39.761Z,3680
2018-06-21T13:41:49.273Z,4095
2018-06-21T13:42:59.307Z,3120
2018-06-21T13:44:08.801Z,3510
2018-06-21T13:45:18.560Z,2605
2018-06-21T13:46:28.330Z,1785
2018-06-21T13:47:38.364Z,1460
2018-06-21T13:48:48.123Z,1500
2018-06-21T13:49:57.878Z,1765
2018-06-21T13:51:07.398Z,3715
2018-06-21T13:52:17.188Z,3820
2018-06-21T13:53:27.248Z,2485
2018-06-21T13:54:37.466Z,2835
2018-06-21T13:55:47.204Z,2870
2018-06-21T13:56:56.961Z,2855
2018-06-21T13:58:06.989Z,2475
2018-06-21T13:59:17.068Z,2295
2018-06-21T14:00:27.109Z,3325
2018-06-21T14:01:37.129Z,3195
2018-06-21T14:02:46.891Z,2135
2018-06-21T14:03:56.662Z,2080
2018-06-21T14:05:06.697Z,1690
2018-06-21T14:06:16.615Z,1825
2018-06-21T14:07:26.588Z,1655
2018-06-21T14:08:38.151Z,1930
2018-06-21T14:09:48.116Z,2205
2018-06-21T14:10:58.196Z,1345
2018-06-21T14:12:07.970Z,1415
2018-06-21T14:13:18.003Z,515
2018-06-21T14:14:28.041Z,385
2018-06-21T14:15:38.061Z,360
2018-06-21T14:16:47.821Z,360
2018-06-21T14:17:57.599Z,355
2018-06-21T14:19:07.402Z,360
2018-06-21T14:20:17.438Z,375
2018-06-21T14:21:27.202Z,385
2018-06-21T14:22:37.246Z,400
2018-06-21T14:23:47.010Z,415
2018-06-21T14:24:57.027Z,420
2018-06-21T14:26:07.534Z,405
2018-06-21T14:27:17.283Z,400
2018-06-21T14:28:27.309Z,385
2018-06-21T14:29:37.324Z,375
2018-06-21T14:30:47.337Z,380
2018-06-21T14:31:56.826Z,375
2018-06-21T14:33:06.339Z,375
2018-06-21T14:34:16.116Z,380
2018-06-21T14:35:26.072Z,385
2018-06-21T14:36:35.881Z,385
2018-06-21T14:37:45.363Z,395
2018-06-21T14:38:55.383Z,405
2018-06-21T14:40:05.129Z,415
2018-06-21T14:41:15.149Z,440
2018-06-21T14:42:25.296Z,470
2018-06-21T14:43:34.852Z,505
2018-06-21T14:44:44.880Z,545
2018-06-21T14:45:54.630Z,585
2018-06-21T14:47:06.110Z,625
2018-06-21T14:48:16.529Z,660
2018-06-21T14:49:26.288Z,700
2018-06-21T14:50:36.034Z,735
2018-06-21T14:51:45.512Z,795
2018-06-21T14:52:54.992Z,815
2018-06-21T14:54:04.479Z,835
2018-06-21T14:55:14.494Z,810
2018-06-21T14:56:24.510Z,705
2018-06-21T14:57:34.531Z,795
2018-06-21T14:58:44.546Z,1700
2018-06-21T14:59:54.031Z,2010
2018-06-21T15:01:03.782Z,2265
2018-06-21T15:02:13.798Z,2485
2018-06-21T15:03:23.296Z,1320
2018-06-21T15:04:33.048Z,2840
2018-06-21T15:05:43.076Z,2805
2018-06-21T15:06:52.836Z,2785
2018-06-21T15:08:02.318Z,2255
2018-06-21T15:09:12.522Z,3070
2018-06-21T15:10:22.635Z,3320
2018-06-21T15:11:32.756Z,1275
2018-06-21T15:12:42.505Z,805
2018-06-21T15:13:52.524Z,645
2018-06-21T15:15:02.277Z,515
2018-06-21T15:16:12.036Z,435
2018-06-21T15:17:21.844Z,380
2018-06-21T15:18:31.599Z,335
2018-06-21T15:19:41.620Z,320
2018-06-21T15:20:51.639Z,325
2018-06-21T15:22:01.389Z,320
2018-06-21T15:23:11.598Z,325
2018-06-21T15:24:21.613Z,345
2018-06-21T15:25:31.090Z,335
2018-06-21T15:26:40.836Z,290
2018-06-21T15:27:52.854Z,265
2018-06-21T15:29:02.938Z,280
2018-06-21T15:30:12.742Z,290
2018-06-21T15:31:22.771Z,340
2018-06-21T15:32:32.788Z,420
2018-06-21T15:33:44.800Z,460
2018-06-21T15:34:54.281Z,1035
2018-06-21T15:36:04.026Z,425
2018-06-21T15:37:14.040Z,380
2018-06-21T15:38:23.788Z,370
2018-06-21T15:39:33.272Z,410
2018-06-21T15:40:43.284Z,520
2018-06-21T15:41:53.035Z,925
2018-06-21T15:43:03.081Z,3365
2018-06-21T15:44:12.568Z,1795
2018-06-21T15:45:22.402Z,2835
2018-06-21T15:46:32.450Z,1180
2018-06-21T15:47:42.196Z,3155
2018-06-21T15:48:51.690Z,930
2018-06-21T15:50:01.762Z,995
2018-06-21T15:51:11.247Z,2240
2018-06-21T15:52:20.461Z,2955
2018-06-21T15:53:29.944Z,3090
2018-06-21T15:54:39.963Z,2170
2018-06-21T15:55:49.984Z,2485
2018-06-21T15:56:59.734Z,3015
2018-06-21T15:58:09.526Z,2195
2018-06-21T15:59:19.542Z,1350
2018-06-21T16:00:29.296Z,1685
2018-06-21T16:01:39.097Z,2925
2018-06-21T16:02:48.849Z,1475
2018-06-21T16:03:58.605Z,970
2018-06-21T16:05:08.102Z,1085
2018-06-21T16:06:17.863Z,2265
2018-06-21T16:07:27.885Z,2470
2018-06-21T16:08:37.924Z,2730
2018-06-21T16:09:47.956Z,2265
2018-06-21T16:10:57.719Z,2605